Time;durP1;ratioP1;P1;durP2;ratioP2;P2;SDS_P1;SDS_P2;PMS_P1;PMS_P2;Temp;Humidity;BMP_temperature;BMP_pressure;BME280_temperature;BME280_humidity;BME280_pressure;Samples;Min_cycle;Max_cycle;Signal;HPM_P1;HPM_P2
2023/08/07 00:00:11;;;;;;;9.07;3.53;;;;;;;12.55;100.00;101303.97;5099319;28;20027;-50
2023/08/07 00:02:36;;;;;;;12.00;3.03;;;;;;;12.54;100.00;101313.78;5097606;28;20055;-48
2023/08/07 00:05:01;;;;;;;16.08;3.80;;;;;;;12.56;100.00;101305.69;5100168;28;20063;-49
2023/08/07 00:07:27;;;;;;;15.85;3.90;;;;;;;12.57;100.00;101302.03;5093000;28;20016;-49
2023/08/07 00:09:52;;;;;;;11.95;3.78;;;;;;;12.56;100.00;101308.34;5103019;28;20023;-50
2023/08/07 00:12:17;;;;;;;13.00;3.45;;;;;;;12.56;100.00;101301.19;5094763;28;20020;-49
2023/08/07 00:14:43;;;;;;;11.52;3.63;;;;;;;12.55;100.00;101294.16;5096786;28;20061;-50
2023/08/07 00:17:08;;;;;;;10.80;3.53;;;;;;;12.55;100.00;101296.81;5094295;28;20043;-49
2023/08/07 00:19:34;;;;;;;13.02;4.07;;;;;;;12.55;100.00;101303.97;5094618;28;20040;-51
2023/08/07 00:22:00;;;;;;;11.68;3.25;;;;;;;12.54;100.00;101308.47;5096041;28;20057;-49
2023/08/07 00:24:25;;;;;;;12.10;3.08;;;;;;;12.54;100.00;101315.59;5101411;28;20035;-50
2023/08/07 00:26:50;;;;;;;11.82;3.20;;;;;;;12.54;100.00;101316.44;5087220;28;20024;-50
2023/08/07 00:29:16;;;;;;;14.55;3.53;;;;;;;12.56;100.00;101333.16;5097406;28;20470;-49
2023/08/07 00:31:41;;;;;;;12.02;4.13;;;;;;;12.56;100.00;101340.31;5099305;27;20024;-50
2023/08/07 00:34:06;;;;;;;10.88;3.78;;;;;;;12.55;100.00;101331.44;5100916;28;20024;-51
2023/08/07 00:36:34;;;;;;;13.77;3.22;;;;;;;12.55;100.00;101336.78;5099084;28;20024;-50
2023/08/07 00:39:00;;;;;;;12.82;3.67;;;;;;;12.55;100.00;101320.78;5096684;28;20072;-50
2023/08/07 00:41:25;;;;;;;11.88;3.38;;;;;;;12.57;100.00;101318.88;5097974;28;20514;-48
2023/08/07 00:43:51;;;;;;;10.85;3.47;;;;;;;12.55;100.00;101319.97;5095297;28;20405;-49
2023/08/07 00:46:16;;;;;;;9.68;3.33;;;;;;;12.51;100.00;101322.00;5101288;28;20112;-50
2023/08/07 00:48:42;;;;;;;11.60;3.10;;;;;;;12.50;100.00;101322.13;5097561;28;20098;-50
2023/08/07 00:51:08;;;;;;;9.68;3.33;;;;;;;12.46;100.00;101324.19;5094439;28;20028;-49
2023/08/07 00:53:37;;;;;;;14.10;3.33;;;;;;;12.48;100.00;101335.56;5097292;28;20048;-50
2023/08/07 00:56:03;;;;;;;9.05;3.35;;;;;;;12.49;100.00;101342.59;5101345;28;20027;-50
2023/08/07 00:58:29;;;;;;;8.30;3.15;;;;;;;12.45;100.00;101333.13;5096512;28;20021;-50
2023/08/07 01:00:55;;;;;;;9.02;2.90;;;;;;;12.45;100.00;101330.47;5092493;28;20070;-53
2023/08/07 01:03:20;;;;;;;8.80;3.13;;;;;;;12.46;100.00;101328.69;5102431;28;20110;-51
2023/08/07 01:05:45;;;;;;;13.30;3.20;;;;;;;12.44;100.00;101323.47;5097030;28;20063;-53
2023/08/07 01:08:11;;;;;;;10.48;3.08;;;;;;;12.44;100.00;101320.78;5092585;28;20020;-50
2023/08/07 01:11:15;;;;;;;12.55;3.33;;;;;;;12.47;100.00;101317.88;5096286;28;20473;-50
2023/08/07 01:13:51;;;;;;;10.30;3.00;;;;;;;12.45;100.00;101324.31;5099622;28;20118;-50
2023/08/07 01:16:35;;;;;;;10.73;3.47;;;;;;;12.44;100.00;101311.94;5099275;28;20028;-52
2023/08/07 01:19:02;;;;;;;11.63;3.28;;;;;;;12.45;100.00;101321.63;5096622;28;20054;-53
2023/08/07 01:21:28;;;;;;;10.35;3.38;;;;;;;12.46;100.00;101328.69;5098177;28;20027;-52
2023/08/07 01:23:53;;;;;;;12.02;3.55;;;;;;;12.46;100.00;101331.34;5098223;28;20039;-51
2023/08/07 01:26:21;;;;;;;11.60;3.97;;;;;;;12.47;100.00;101333.84;5097080;28;20032;-50
2023/08/07 01:29:09;;;;;;;12.50;3.75;;;;;;;12.43;100.00;101329.75;5095888;28;20046;-51
2023/08/07 01:31:37;;;;;;;9.27;3.38;;;;;;;12.46;100.00;101340.16;5094478;28;20123;-50
2023/08/07 01:34:06;;;;;;;13.83;3.50;;;;;;;12.48;100.00;101340.06;5073200;28;20137;-50
2023/08/07 01:36:32;;;;;;;13.50;3.10;;;;;;;12.46;100.00;101352.66;5096598;28;20316;-49
2023/08/07 01:38:59;;;;;;;10.32;3.45;;;;;;;12.48;100.00;101353.38;5094561;28;20039;-51
2023/08/07 01:41:25;;;;;;;10.45;3.25;;;;;;;12.45;100.00;101343.78;5096800;28;20032;-51
2023/08/07 01:43:51;;;;;;;11.40;3.22;;;;;;;12.45;100.00;101340.28;5096740;28;20047;-52
2023/08/07 01:46:18;;;;;;;12.50;3.00;;;;;;;12.41;100.00;101353.00;5094930;28;20026;-49
2023/08/07 01:48:43;;;;;;;13.90;3.35;;;;;;;12.39;100.00;101355.78;5096802;28;20053;-51
2023/08/07 01:51:08;;;;;;;10.38;3.33;;;;;;;12.36;100.00;101352.50;5096896;28;20469;-51
2023/08/07 01:53:34;;;;;;;11.32;3.45;;;;;;;12.35;100.00;101353.44;5098421;28;20020;-49
2023/08/07 01:55:59;;;;;;;13.88;3.95;;;;;;;12.32;100.00;101357.22;5090234;28;20057;-50
2023/08/07 01:58:24;;;;;;;10.15;3.05;;;;;;;12.28;100.00;101355.72;5102721;28;20023;-50
2023/08/07 02:00:50;;;;;;;12.98;3.72;;;;;;;12.27;100.00;101358.50;5098564;28;20089;-49
2023/08/07 02:03:15;;;;;;;11.55;3.65;;;;;;;12.25;100.00;101355.97;5104705;28;20040;-51
2023/08/07 02:05:40;;;;;;;18.60;3.80;;;;;;;12.25;100.00;101361.28;5094379;28;20460;-49
2023/08/07 02:08:06;;;;;;;13.75;3.60;;;;;;;12.25;100.00;101361.28;5103876;28;20077;-49
2023/08/07 02:10:31;;;;;;;11.65;3.20;;;;;;;12.26;100.00;101371.00;5095915;28;20097;-50
2023/08/07 02:12:59;;;;;;;16.00;3.92;;;;;;;12.26;100.00;101362.13;5100825;28;20065;-49
2023/08/07 02:15:24;;;;;;;14.15;3.47;;;;;;;12.26;100.00;101365.66;5095063;28;20028;-49
2023/08/07 02:17:49;;;;;;;10.30;2.95;;;;;;;12.29;100.00;101364.56;5103294;28;20027;-49
2023/08/07 02:20:15;;;;;;;12.43;3.70;;;;;;;12.28;100.00;101366.38;5101409;28;20113;-47
2023/08/07 02:22:40;;;;;;;10.90;3.38;;;;;;;12.28;100.00;101370.88;5097286;28;20031;-49
2023/08/07 02:25:06;;;;;;;12.77;3.17;;;;;;;12.29;100.00;101368.09;5098855;28;20043;-48
2023/08/07 02:27:31;;;;;;;10.93;3.38;;;;;;;12.31;100.00;101371.47;5094005;28;20077;-48
2023/08/07 02:29:56;;;;;;;12.68;4.10;;;;;;;12.31;100.00;101368.81;5102462;28;20061;-48
2023/08/07 02:32:22;;;;;;;11.93;3.85;;;;;;;12.31;100.00;101362.66;5102134;28;20099;-50
2023/08/07 02:34:47;;;;;;;9.77;3.50;;;;;;;12.29;100.00;101354.78;5100661;28;20058;-48
2023/08/07 02:37:12;;;;;;;12.32;4.00;;;;;;;12.30;100.00;101356.47;5101053;28;20410;-51
2023/08/07 02:39:38;;;;;;;22.15;4.10;;;;;;;12.28;100.00;101355.72;5098169;28;20028;-50
2023/08/07 02:42:03;;;;;;;14.68;4.07;;;;;;;12.31;100.00;101355.50;5098066;28;20111;-51
2023/08/07 02:44:29;;;;;;;11.38;3.60;;;;;;;12.31;100.00;101362.66;5095952;28;20055;-48
2023/08/07 02:46:54;;;;;;;12.82;4.20;;;;;;;12.34;100.00;101357.06;5094951;28;20031;-48
2023/08/07 02:49:19;;;;;;;13.13;4.32;;;;;;;12.34;100.00;101359.72;5101025;28;20039;-49
2023/08/07 02:51:45;;;;;;;13.18;3.50;;;;;;;12.35;100.00;101350.78;5098834;28;20033;-48
2023/08/07 02:54:10;;;;;;;11.63;3.45;;;;;;;12.35;100.00;101356.13;5095376;28;20024;-49
2023/08/07 02:56:35;;;;;;;8.95;3.45;;;;;;;12.35;100.00;101350.78;5096943;28;20016;-48
2023/08/07 02:59:01;;;;;;;6.47;2.92;;;;;;;12.37;100.00;101355.06;5099842;28;20401;-48
2023/08/07 03:01:27;;;;;;;16.35;3.60;;;;;;;12.34;100.00;101349.94;5099910;28;20016;-50
2023/08/07 03:03:53;;;;;;;12.15;3.67;;;;;;;12.36;100.00;101356.00;5103524;28;20485;-51
2023/08/07 03:06:18;;;;;;;10.18;3.70;;;;;;;12.37;100.00;101357.72;5098657;28;20036;-50
2023/08/07 03:08:43;;;;;;;7.97;3.40;;;;;;;12.37;100.00;101352.38;5098295;28;20063;-50
2023/08/07 03:11:08;;;;;;;16.23;3.47;;;;;;;12.38;100.00;101361.22;5099325;28;20082;-51
2023/08/07 03:13:34;;;;;;;12.50;3.10;;;;;;;12.38;100.00;101364.72;5095565;28;20019;-50
2023/08/07 03:16:00;;;;;;;15.13;3.38;;;;;;;12.38;100.00;101361.22;5094461;28;20063;-50
2023/08/07 03:18:27;;;;;;;13.18;3.78;;;;;;;12.36;100.00;101356.00;5099073;28;20047;-51
2023/08/07 03:20:52;;;;;;;14.93;4.05;;;;;;;12.36;100.00;101361.34;5095619;28;20024;-48
2023/08/07 03:23:17;;;;;;;12.30;3.83;;;;;;;12.39;100.00;101362.94;5095009;28;20548;-51
2023/08/07 03:25:42;;;;;;;11.02;3.70;;;;;;;12.38;100.00;101364.72;5096681;28;20027;-50
2023/08/07 03:28:08;;;;;;;7.15;3.75;;;;;;;12.39;100.00;101354.94;5102621;28;20020;-50
2023/08/07 03:30:33;;;;;;;13.60;3.75;;;;;;;12.39;100.00;101349.59;5090362;28;20028;-50
2023/08/07 03:32:58;;;;;;;11.80;3.50;;;;;;;12.39;100.00;101345.13;5100870;28;20031;-51
2023/08/07 03:35:24;;;;;;;11.77;3.42;;;;;;;12.38;100.00;101337.25;5100815;28;20028;-51
2023/08/07 03:37:49;;;;;;;10.80;3.58;;;;;;;12.37;100.00;101344.41;5098669;27;20113;-49
2023/08/07 03:40:14;;;;;;;12.52;3.95;;;;;;;12.36;100.00;101348.00;5099974;28;20442;-50
2023/08/07 03:42:40;;;;;;;11.40;3.80;;;;;;;12.37;100.00;101348.84;5098889;28;20473;-50
2023/08/07 03:45:06;;;;;;;9.98;3.58;;;;;;;12.36;100.00;101342.69;5095431;28;20556;-51
2023/08/07 03:47:31;;;;;;;13.05;4.13;;;;;;;12.34;100.00;101341.97;5096322;28;20030;-50
2023/08/07 03:49:56;;;;;;;13.38;3.63;;;;;;;12.36;100.00;101334.69;5098684;28;20035;-49
2023/08/07 03:52:22;;;;;;;13.80;3.88;;;;;;;12.36;100.00;101344.50;5101280;28;20388;-49
2023/08/07 03:54:47;;;;;;;14.10;4.00;;;;;;;12.37;100.00;101346.19;5097255;28;20031;-49
2023/08/07 03:57:12;;;;;;;10.35;3.55;;;;;;;12.36;100.00;101348.00;5100382;28;20024;-50
2023/08/07 03:59:37;;;;;;;9.95;3.60;;;;;;;12.37;100.00;101344.41;5099345;28;20154;-51
2023/08/07 04:02:03;;;;;;;12.60;4.20;;;;;;;12.37;100.00;101343.53;5097300;28;20126;-49
2023/08/07 04:04:29;;;;;;;13.50;3.95;;;;;;;12.39;100.00;101354.94;5099638;28;20295;-49
2023/08/07 04:06:54;;;;;;;13.40;3.85;;;;;;;12.42;100.00;101361.81;5099596;28;20019;-49
2023/08/07 04:09:19;;;;;;;9.13;3.72;;;;;;;12.40;100.00;101365.44;5094470;28;20370;-48
2023/08/07 04:11:45;;;;;;;11.25;3.83;;;;;;;12.41;100.00;101371.66;5096996;28;20540;-49
2023/08/07 04:14:11;;;;;;;13.20;3.95;;;;;;;12.40;100.00;101364.59;5097127;28;20049;-50
2023/08/07 04:16:37;;;;;;;11.70;3.80;;;;;;;12.39;100.00;101363.75;5095563;27;20500;-51
2023/08/07 04:19:02;;;;;;;14.82;4.20;;;;;;;12.36;100.00;101358.66;5098821;28;20482;-50
2023/08/07 04:21:27;;;;;;;15.35;3.97;;;;;;;12.37;100.00;101360.38;5098049;28;20030;-50
2023/08/07 04:23:53;;;;;;;12.05;4.07;;;;;;;12.38;100.00;101370.03;5099546;28;20532;-48
2023/08/07 04:26:18;;;;;;;13.95;4.30;;;;;;;12.36;100.00;101369.31;5097431;28;20477;-48
2023/08/07 04:28:43;;;;;;;12.15;3.70;;;;;;;12.38;100.00;101375.38;5095953;28;20051;-49
2023/08/07 04:31:08;;;;;;;14.48;3.65;;;;;;;12.36;100.00;101371.16;5095775;28;20024;-53
2023/08/07 04:33:34;;;;;;;12.63;3.83;;;;;;;12.36;100.00;101361.34;5091353;28;20020;-49
2023/08/07 04:35:59;;;;;;;14.45;4.00;;;;;;;12.33;100.00;101364.22;5097852;28;20038;-49
2023/08/07 04:38:25;;;;;;;11.98;3.60;;;;;;;12.33;100.00;101363.38;5099122;28;20122;-50
2023/08/07 04:40:51;;;;;;;9.40;3.50;;;;;;;12.33;100.00;101374.88;5098735;28;20533;-49
2023/08/07 04:43:18;;;;;;;10.48;3.30;;;;;;;12.31;100.00;101373.31;5096681;28;20127;-50
2023/08/07 04:45:44;;;;;;;11.70;3.42;;;;;;;12.34;100.00;101376.59;5098724;28;20032;-49
2023/08/07 04:48:11;;;;;;;11.20;3.55;;;;;;;12.35;100.00;101382.75;5097157;28;20031;-49
2023/08/07 04:50:37;;;;;;;14.30;4.00;;;;;;;12.37;100.00;101375.50;5099089;28;20062;-52
2023/08/07 04:53:02;;;;;;;11.43;3.38;;;;;;;12.36;100.00;101373.81;5094911;28;20114;-50
2023/08/07 04:55:28;;;;;;;9.18;3.28;;;;;;;12.38;100.00;101374.53;5096858;28;20040;-49
2023/08/07 04:57:56;;;;;;;9.60;2.95;;;;;;;12.40;100.00;101380.59;5091333;28;20028;-49
2023/08/07 05:00:21;;;;;;;9.27;3.60;;;;;;;12.40;100.00;101380.59;5100759;28;20067;-51
2023/08/07 05:02:48;;;;;;;11.85;3.55;;;;;;;12.40;100.00;101381.44;5096041;28;20074;-49
2023/08/07 05:05:14;;;;;;;8.18;3.10;;;;;;;12.43;100.00;101385.69;5100124;28;20073;-49
2023/08/07 05:07:40;;;;;;;11.50;3.08;;;;;;;12.44;100.00;101386.53;5090330;28;20032;-51
2023/08/07 05:10:06;;;;;;;9.80;2.83;;;;;;;12.44;100.00;101390.06;5092268;28;20390;-51
2023/08/07 05:12:31;;;;;;;10.48;3.17;;;;;;;12.42;100.00;101385.81;5094639;28;20028;-51
2023/08/07 05:14:56;;;;;;;9.65;3.28;;;;;;;12.44;100.00;101392.72;5096209;28;20046;-51
2023/08/07 05:17:22;;;;;;;8.10;3.20;;;;;;;12.44;100.00;101390.06;5094779;28;20469;-50
2023/08/07 05:19:47;;;;;;;11.32;2.92;;;;;;;12.42;100.00;101394.63;5094113;28;20073;-51
2023/08/07 05:22:12;;;;;;;10.57;2.83;;;;;;;12.41;100.00;101387.63;5099255;28;20370;-51
2023/08/07 05:24:38;;;;;;;9.90;2.88;;;;;;;12.43;100.00;101395.50;5092954;28;20058;-50
2023/08/07 05:27:12;;;;;;;11.05;3.15;;;;;;;12.44;100.00;101399.84;5091793;28;20032;-50
2023/08/07 05:29:43;;;;;;;8.05;2.92;;;;;;;12.42;100.00;101399.13;5097121;28;20381;-50
2023/08/07 05:32:10;;;;;;;9.57;3.05;;;;;;;12.42;100.00;101404.44;5100253;28;20032;-50
2023/08/07 05:34:35;;;;;;;11.15;3.00;;;;;;;12.41;100.00;101406.28;5104045;28;20468;-52
2023/08/07 05:37:01;;;;;;;11.50;3.30;;;;;;;12.43;100.00;101406.16;5101349;28;20116;-50
2023/08/07 05:39:26;;;;;;;11.20;3.20;;;;;;;12.43;100.00;101416.81;5101398;28;20101;-50
2023/08/07 05:41:53;;;;;;;12.95;3.42;;;;;;;12.42;100.00;101410.63;5100300;28;20020;-49
2023/08/07 05:44:19;;;;;;;11.45;3.65;;;;;;;12.45;100.00;101420.22;5101321;28;20048;-50
2023/08/07 05:46:44;;;;;;;12.18;3.35;;;;;;;12.45;100.00;101425.53;5099418;28;20043;-50
2023/08/07 05:49:09;;;;;;;14.02;3.58;;;;;;;12.45;100.00;101428.19;5099205;28;20047;-49
2023/08/07 05:51:34;;;;;;;11.52;3.45;;;;;;;12.48;100.00;101438.63;5093599;28;20023;-52
2023/08/07 05:54:00;;;;;;;11.98;3.30;;;;;;;12.48;100.00;101442.13;5101407;28;20106;-50
2023/08/07 05:56:25;;;;;;;10.52;3.33;;;;;;;12.49;100.00;101446.50;5092968;28;20036;-51
2023/08/07 05:58:50;;;;;;;15.07;4.15;;;;;;;12.49;100.00;101441.19;5096010;28;20024;-49
2023/08/07 06:01:17;;;;;;;12.30;3.20;;;;;;;12.51;100.00;101441.91;5093268;28;20137;-50
2023/08/07 06:03:42;;;;;;;12.45;3.22;;;;;;;12.56;100.00;101441.56;5101925;28;20062;-50
2023/08/07 06:06:08;;;;;;;9.70;2.95;;;;;;;12.56;100.00;101436.25;5094733;28;20031;-50
2023/08/07 06:08:34;;;;;;;11.52;3.40;;;;;;;12.58;100.00;101443.13;5098815;28;20626;-50
2023/08/07 06:11:03;;;;;;;10.65;3.90;;;;;;;12.60;100.00;101437.69;5094936;28;20043;-51
2023/08/07 06:13:28;;;;;;;11.75;3.40;;;;;;;12.62;100.00;101445.56;5093488;28;20024;-51
2023/08/07 06:15:54;;;;;;;10.25;2.97;;;;;;;12.65;100.00;101443.53;5093219;28;20058;-50
2023/08/07 06:18:19;;;;;;;14.40;3.80;;;;;;;12.68;100.00;101448.63;5097132;28;20024;-51
2023/08/07 06:20:45;;;;;;;11.85;3.22;;;;;;;12.71;100.00;101444.88;5091517;28;20032;-50
2023/08/07 06:23:10;;;;;;;10.75;3.00;;;;;;;12.76;100.00;101445.38;5095250;28;20031;-50
2023/08/07 06:25:35;;;;;;;13.00;3.00;;;;;;;12.82;100.00;101449.38;5095356;28;20040;-50
2023/08/07 06:28:00;;;;;;;12.43;2.63;;;;;;;12.89;100.00;101455.94;5092778;28;20146;-51
2023/08/07 06:30:26;;;;;;;10.52;2.90;;;;;;;12.95;100.00;101461.66;5099278;28;20019;-51
2023/08/07 06:32:51;;;;;;;13.82;3.22;;;;;;;12.99;100.00;101464.97;5094713;28;20032;-51
2023/08/07 06:35:17;;;;;;;8.35;3.05;;;;;;;13.04;100.00;101470.78;5096499;28;20024;-50
2023/08/07 06:37:42;;;;;;;9.90;3.10;;;;;;;13.08;100.00;101477.56;5100087;28;20064;-50
2023/08/07 06:40:08;;;;;;;10.05;2.60;;;;;;;13.10;100.00;101480.13;5096088;28;20478;-49
2023/08/07 06:42:33;;;;;;;9.52;3.00;;;;;;;13.17;100.00;101472.50;5097582;28;20399;-49
2023/08/07 06:44:58;;;;;;;12.68;3.35;;;;;;;13.21;100.00;101473.97;5099787;28;20401;-49
2023/08/07 06:47:23;;;;;;;7.95;2.75;;;;;;;13.24;100.00;101485.25;5098167;28;20039;-50
2023/08/07 06:49:49;;;;;;;13.15;3.17;;;;;;;13.26;100.00;101477.13;5101739;28;20043;-50
2023/08/07 06:52:14;;;;;;;11.27;2.88;;;;;;;13.29;100.00;101482.22;5094612;28;20031;-53
2023/08/07 06:54:40;;;;;;;9.25;3.08;;;;;;;13.35;100.00;101478.25;5101991;28;20080;-49
2023/08/07 06:57:05;;;;;;;10.68;2.75;;;;;;;13.39;100.00;101483.22;5094577;28;20499;-50
2023/08/07 06:59:30;;;;;;;8.13;2.75;;;;;;;13.45;100.00;101481.88;5097875;28;20512;-51
2023/08/07 07:01:56;;;;;;;12.48;2.55;;;;;;;13.55;100.00;101480.19;5101488;28;20027;-50
2023/08/07 07:04:21;;;;;;;11.38;2.67;;;;;;;13.66;100.00;101482.03;5095207;28;20047;-50
2023/08/07 07:06:46;;;;;;;15.45;2.88;;;;;;;13.72;100.00;101488.69;5098868;28;20035;-50
2023/08/07 07:09:15;;;;;;;7.32;2.70;;;;;;;13.82;100.00;101487.84;5096986;28;20054;-50
2023/08/07 07:11:41;;;;;;;10.27;3.00;;;;;;;14.04;100.00;101494.13;5096235;28;20488;-49
2023/08/07 07:14:07;;;;;;;13.05;2.67;;;;;;;14.28;100.00;101495.75;5097573;28;20040;-48
2023/08/07 07:16:32;;;;;;;6.63;2.33;;;;;;;14.52;100.00;101488.41;5096424;28;20064;-49
2023/08/07 07:18:59;;;;;;;14.90;3.13;;;;;;;14.64;100.00;101491.91;5095396;28;20312;-48
2023/08/07 07:21:25;;;;;;;9.25;3.13;;;;;;;14.74;100.00;101506.19;5094183;28;20032;-50
2023/08/07 07:23:51;;;;;;;14.05;3.15;;;;;;;14.77;100.00;101507.75;5092981;28;20031;-49
2023/08/07 07:26:17;;;;;;;12.40;2.33;;;;;;;14.78;100.00;101509.44;5096056;27;20023;-48
2023/08/07 07:28:42;;;;;;;13.85;3.00;;;;;;;14.75;100.00;101512.38;5094361;28;20097;-48
2023/08/07 07:31:11;;;;;;;12.82;2.70;;;;;;;14.73;100.00;101517.00;5091850;28;20028;-49
2023/08/07 07:33:36;;;;;;;16.27;2.63;;;;;;;14.70;98.31;101511.91;5093528;28;20040;-49
2023/08/07 07:36:02;;;;;;;8.57;2.65;;;;;;;14.71;98.75;101513.63;5100860;28;20040;-49
2023/08/07 07:38:28;;;;;;;9.65;2.20;;;;;;;14.75;100.00;101517.72;5096735;28;20039;-49
2023/08/07 07:40:56;;;;;;;8.63;2.38;;;;;;;14.75;97.88;101520.41;5097997;28;20326;-49
2023/08/07 07:43:22;;;;;;;10.10;3.40;;;;;;;14.79;98.87;101522.69;5098405;28;20047;-48
2023/08/07 07:45:47;;;;;;;9.13;2.60;;;;;;;14.93;99.95;101526.88;5094566;28;20039;-48
2023/08/07 07:48:12;;;;;;;12.52;3.03;;;;;;;15.01;99.04;101525.41;5094247;28;20028;-48
2023/08/07 07:50:38;;;;;;;9.45;2.65;;;;;;;15.06;98.34;101532.03;5097423;28;20031;-48
2023/08/07 07:53:03;;;;;;;11.13;2.63;;;;;;;15.09;94.40;101536.31;5099544;28;20035;-50
2023/08/07 07:55:28;;;;;;;9.65;2.30;;;;;;;15.10;96.42;101541.50;5095140;28;20052;-49
2023/08/07 07:57:54;;;;;;;10.07;2.38;;;;;;;15.09;97.14;101538.97;5096596;28;20103;-48
2023/08/07 08:00:20;;;;;;;12.05;2.95;;;;;;;15.06;96.15;101550.78;5093811;28;20023;-48
2023/08/07 08:02:47;;;;;;;9.50;2.33;;;;;;;15.11;96.29;101543.19;5091436;28;20107;-49
2023/08/07 08:05:12;;;;;;;9.00;2.75;;;;;;;15.18;97.40;101541.69;5102574;28;20111;-48
2023/08/07 08:07:39;;;;;;;14.50;2.38;;;;;;;15.21;94.89;101548.63;5099792;28;20370;-48
2023/08/07 08:10:08;;;;;;;9.15;2.13;;;;;;;15.33;91.31;101552.91;5099186;28;20028;-48
2023/08/07 08:12:35;;;;;;;9.13;2.20;;;;;;;15.68;96.35;101542.81;5097516;28;20032;-49
2023/08/07 08:15:00;;;;;;;9.15;3.08;;;;;;;16.11;95.66;101551.63;5101404;28;20481;-49
2023/08/07 08:17:26;;;;;;;10.20;2.80;;;;;;;16.43;93.09;101546.91;5100362;28;20032;-51
2023/08/07 08:19:51;;;;;;;13.15;2.33;;;;;;;16.74;87.90;101552.16;5095620;28;20028;-50
2023/08/07 08:22:16;;;;;;;12.27;2.10;;;;;;;17.08;87.14;101553.59;5096743;28;20024;-51
2023/08/07 08:24:41;;;;;;;11.88;2.55;;;;;;;17.34;83.65;101553.84;5101850;28;20035;-49
2023/08/07 08:27:07;;;;;;;5.32;1.77;;;;;;;17.63;82.36;101556.44;5095096;28;20108;-49
2023/08/07 08:29:32;;;;;;;7.68;2.20;;;;;;;17.65;79.03;101564.34;5100434;28;20032;-49
2023/08/07 08:31:58;;;;;;;8.82;2.72;;;;;;;17.54;78.66;101563.53;5093900;28;20090;-49
2023/08/07 08:34:23;;;;;;;10.40;2.13;;;;;;;17.59;76.64;101559.59;5099812;28;20054;-50
2023/08/07 08:36:48;;;;;;;8.10;2.05;;;;;;;17.76;73.51;101558.81;5095592;28;20115;-49
2023/08/07 08:39:14;;;;;;;8.20;2.20;;;;;;;17.96;71.89;101564.13;5099938;28;20028;-50
2023/08/07 08:41:42;;;;;;;7.35;1.80;;;;;;;18.06;72.94;101559.56;5093398;28;20023;-49
2023/08/07 08:44:10;;;;;;;6.23;2.10;;;;;;;18.22;72.65;101566.94;5098438;28;20064;-48
2023/08/07 08:46:37;;;;;;;8.52;2.75;;;;;;;18.19;73.54;101570.81;5095260;28;20115;-49
2023/08/07 08:49:03;;;;;;;7.07;2.17;;;;;;;18.16;73.71;101578.34;5097415;28;20035;-51
2023/08/07 08:51:30;;;;;;;8.60;2.42;;;;;;;17.95;69.41;101582.09;5098023;28;20038;-51
2023/08/07 08:53:56;;;;;;;6.25;2.35;;;;;;;17.82;73.85;101582.41;5099036;28;20107;-49
2023/08/07 08:56:22;;;;;;;10.68;2.33;;;;;;;17.98;74.14;101579.09;5095781;28;20114;-48
2023/08/07 08:58:50;;;;;;;4.18;1.70;;;;;;;18.27;68.17;101583.50;5099589;28;20051;-49
2023/08/07 09:01:17;;;;;;;11.25;1.85;;;;;;;18.53;70.08;101578.25;5097096;28;20061;-49
2023/08/07 09:03:45;;;;;;;7.22;2.20;;;;;;;18.88;65.56;101576.59;5066884;28;20284;-50
2023/08/07 09:06:11;;;;;;;4.57;1.60;;;;;;;19.15;70.38;101572.09;5097392;28;20061;-50
2023/08/07 09:08:40;;;;;;;6.75;1.77;;;;;;;19.45;65.43;101569.97;5095576;28;20027;-51
2023/08/07 09:11:07;;;;;;;;;;;;;;;19.68;73.84;101581.06;5098151;28;20035;-50
2023/08/07 09:13:33;;;;;;;7.05;1.88;;;;;;;20.04;63.35;101579.09;5097524;28;20014;-51
2023/08/07 09:16:00;;;;;;;4.40;1.55;;;;;;;20.28;64.51;101577.50;5100443;28;20032;-49
2023/08/07 09:18:26;;;;;;;5.47;1.70;;;;;;;20.33;61.90;101580.53;5092688;28;20493;-51
2023/08/07 09:20:51;;;;;;;4.25;1.85;;;;;;;20.11;58.95;101574.72;5101875;28;20039;-51
2023/08/07 09:23:17;;;;;;;6.20;1.77;;;;;;;20.08;59.85;101574.22;5101670;28;20078;-50
2023/08/07 09:25:42;;;;;;;9.90;1.90;;;;;;;20.35;59.92;101586.66;5095956;28;20035;-50
2023/08/07 09:28:09;;;;;;;5.88;1.85;;;;;;;20.50;60.63;101597.63;5100571;28;20016;-49
2023/08/07 09:30:39;;;;;;;7.93;1.75;;;;;;;20.78;57.83;101594.69;5096547;28;20386;-49
2023/08/07 09:33:04;;;;;;;6.63;1.80;;;;;;;21.18;59.63;101593.00;5096341;28;20032;-51
2023/08/07 09:35:34;;;;;;;7.32;2.10;;;;;;;21.21;58.86;101589.97;5092349;28;20024;-49
2023/08/07 09:37:59;;;;;;;7.72;2.10;;;;;;;21.34;56.68;101592.19;5097162;28;20078;-47
2023/08/07 09:40:25;;;;;;;7.68;2.00;;;;;;;21.50;54.67;101580.50;5097500;28;20091;-47
2023/08/07 09:42:52;;;;;;;9.07;1.98;;;;;;;21.83;55.86;101592.09;5091486;28;20097;-46
2023/08/07 09:45:23;;;;;;;7.55;2.00;;;;;;;21.64;57.65;101587.94;5099813;28;20028;-48
2023/08/07 09:47:59;;;;;;;7.85;2.10;;;;;;;21.57;57.15;101601.28;5097137;28;20024;-47
2023/08/07 09:50:25;;;;;;;7.07;2.03;;;;;;;21.45;59.10;101610.75;5093649;28;20015;-47
2023/08/07 09:52:51;;;;;;;6.82;2.03;;;;;;;21.73;56.51;101602.28;5091483;28;20020;-47
2023/08/07 09:55:16;;;;;;;11.07;2.10;;;;;;;21.86;54.91;101607.97;5097038;28;20055;-49
2023/08/07 09:57:44;;;;;;;5.65;1.83;;;;;;;21.92;53.62;101612.69;5095181;28;20054;-47
2023/08/07 10:00:11;;;;;;;9.07;1.90;;;;;;;22.15;52.79;101604.69;5093115;28;20024;-47
2023/08/07 10:02:38;;;;;;;5.13;2.00;;;;;;;22.20;49.18;101619.53;5091711;28;20016;-46
2023/08/07 10:05:06;;;;;;;4.40;1.63;;;;;;;22.38;52.76;101595.78;5085770;28;20066;-48
2023/08/07 10:07:31;;;;;;;5.15;1.90;;;;;;;22.54;49.98;101611.94;5097958;28;20470;-48
2023/08/07 10:09:59;;;;;;;7.40;1.90;;;;;;;22.60;52.73;101613.13;5094416;28;20032;-47
2023/08/07 10:12:26;;;;;;;5.68;1.77;;;;;;;22.49;52.46;101613.50;5087836;28;20462;-50
2023/08/07 10:14:53;;;;;;;7.18;2.08;;;;;;;22.42;48.29;101626.91;5097278;28;20028;-48
2023/08/07 10:17:19;;;;;;;5.68;1.70;;;;;;;22.37;50.12;101625.78;5090440;28;20027;-47
2023/08/07 10:19:45;;;;;;;5.63;2.17;;;;;;;22.25;51.03;101622.53;5094020;28;20043;-50
2023/08/07 10:22:11;;;;;;;7.68;1.98;;;;;;;22.26;47.53;101622.38;5095909;28;20031;-48
2023/08/07 10:24:41;;;;;;;4.38;1.83;;;;;;;22.29;47.31;101629.34;5094447;28;20115;-48
2023/08/07 10:27:08;;;;;;;9.27;1.90;;;;;;;22.49;48.48;101617.06;5095091;28;20035;-47
2023/08/07 10:29:36;;;;;;;5.20;1.83;;;;;;;22.69;47.98;101633.69;5089208;28;20094;-49
2023/08/07 10:32:03;;;;;;;4.57;1.50;;;;;;;22.73;45.48;101620.63;5097387;28;20381;-48
2023/08/07 10:34:30;;;;;;;5.03;2.00;;;;;;;22.66;46.79;101611.53;5089501;28;20062;-48
2023/08/07 10:36:56;;;;;;;6.47;1.90;;;;;;;22.65;47.97;101623.38;5098895;28;20020;-48
2023/08/07 10:39:22;;;;;;;7.00;2.00;;;;;;;22.45;48.08;101629.28;5097850;28;20043;-47
2023/08/07 10:41:53;;;;;;;6.18;1.80;;;;;;;22.50;49.20;101635.00;5098955;28;20031;-47
2023/08/07 10:44:29;;;;;;;7.35;2.17;;;;;;;22.43;49.44;101641.28;5096213;28;20520;-48
2023/08/07 10:46:57;;;;;;;4.35;1.70;;;;;;;22.70;48.87;101629.13;5102947;28;20051;-48
2023/08/07 10:49:41;;;;;;;4.53;1.80;;;;;;;22.85;50.88;101640.06;5097469;28;20032;-48
2023/08/07 10:52:12;;;;;;;5.60;2.08;;;;;;;23.00;48.66;101645.50;5098401;28;20039;-48
2023/08/07 10:54:58;;;;;;;7.53;1.80;;;;;;;23.00;46.27;101640.97;5091643;28;20043;-47
2023/08/07 10:57:31;;;;;;;7.82;2.13;;;;;;;23.07;48.27;101631.09;5089832;28;20036;-48
2023/08/07 10:59:56;;;;;;;9.68;1.85;;;;;;;23.27;45.20;101628.75;5096266;28;20028;-48
2023/08/07 11:02:26;;;;;;;5.17;2.00;;;;;;;23.16;44.32;101641.88;5093641;28;20053;-47
2023/08/07 11:04:53;;;;;;;3.72;1.30;;;;;;;22.84;44.49;101646.47;5097584;28;20055;-48
2023/08/07 11:07:30;;;;;;;5.65;2.15;;;;;;;22.81;47.58;101639.53;5094908;28;20028;-48
2023/08/07 11:09:57;;;;;;;5.85;1.92;;;;;;;22.92;45.42;101651.84;5091179;28;20071;-48